X  Κλείσε Στοιχεία METAR Αεροπλοίας     LGBL Nea Anchialos National Airport
Θερμοκρασία
59°F Θερμοκρασία
54°F Σημείο Δρόσου
82% Υγρασία



Ανεμος
6 MPH
10 KM/H
3 M/S
5 KTS



270°
Δ
Τρέχουσες Συνθήκες

Αίθριος Αίθριος
Πίεση 1022.01 (hPa) - 30.18 (inHg)
Ορατότητα 6 (μίλι) - 9.7 (km)
Aεροδρόμιο
Κωδικός Αεροδρομίου LGBL

Τοποθεσία: Nea Anchialos National Airport
Απόσταση: 74 (mi)

Metar:
LGBL 132050Z 27005KT CAVOK 15/12 Q1022

ώρα: 13-04-2024 23:50 EEST